createdAt,value
2023-01-30T00:01:38.830Z,0.71
2023-01-30T00:04:10.495Z,0.67
2023-01-30T00:06:41.856Z,0.64
2023-01-30T00:09:15.028Z,0.61
2023-01-30T00:11:47.552Z,0.61
2023-01-30T00:14:19.132Z,0.58
2023-01-30T00:16:51.530Z,0.54
2023-01-30T00:19:22.276Z,0.48
2023-01-30T00:21:53.327Z,0.45
2023-01-30T00:24:24.996Z,0.47
2023-01-30T00:26:56.585Z,0.46
2023-01-30T00:29:27.423Z,0.48
2023-01-30T00:31:58.602Z,0.51
2023-01-30T00:34:29.885Z,0.55
2023-01-30T00:37:08.055Z,0.54
2023-01-30T00:39:40.168Z,0.53
2023-01-30T00:49:10.050Z,0.65
2023-01-30T00:51:40.705Z,0.67
2023-01-30T00:54:11.552Z,0.67
2023-01-30T00:56:42.332Z,0.64
2023-01-30T00:59:13.164Z,0.61
2023-01-30T01:01:43.957Z,0.60
2023-01-30T01:04:14.768Z,0.58
2023-01-30T01:06:45.596Z,0.56
2023-01-30T01:09:16.322Z,0.56
2023-01-30T01:11:47.023Z,0.56
2023-01-30T01:14:17.927Z,0.56
2023-01-30T01:16:48.705Z,0.60
2023-01-30T01:19:19.469Z,0.61
2023-01-30T01:21:50.229Z,0.61
2023-01-30T01:24:21.090Z,0.61
2023-01-30T01:26:51.898Z,0.59
2023-01-30T01:29:22.707Z,0.59
2023-01-30T01:31:53.459Z,0.57
2023-01-30T01:34:24.336Z,0.59
2023-01-30T01:36:55.160Z,0.61
2023-01-30T01:39:46.178Z,0.61
2023-01-30T01:42:16.909Z,0.64
2023-01-30T01:45:05.055Z,0.66
2023-01-30T01:47:35.761Z,0.67
2023-01-30T01:50:06.781Z,0.68
2023-01-30T01:52:37.520Z,0.70
2023-01-30T01:55:08.846Z,0.69
2023-01-30T01:57:40.237Z,0.68
2023-01-30T02:00:14.911Z,0.66
2023-01-30T02:02:46.958Z,0.63
2023-01-30T02:05:18.176Z,0.60
2023-01-30T02:07:52.438Z,0.54
2023-01-30T02:10:23.818Z,0.51
2023-01-30T02:12:54.546Z,0.51
2023-01-30T02:15:25.385Z,0.52
2023-01-30T02:17:56.128Z,0.55
2023-01-30T02:20:30.547Z,0.52
2023-01-30T02:23:20.688Z,0.50
2023-01-30T02:25:56.570Z,0.47
2023-01-30T02:28:33.993Z,0.45
2023-01-30T02:31:07.283Z,0.43
2023-01-30T02:33:41.441Z,0.44
2023-01-30T02:36:15.111Z,0.46
2023-01-30T02:38:48.726Z,0.48
2023-01-30T02:41:21.574Z,0.50
2023-01-30T02:43:56.072Z,0.52
2023-01-30T02:46:27.524Z,0.51
2023-01-30T02:48:58.801Z,0.51
2023-01-30T02:51:30.334Z,0.51
2023-01-30T02:54:01.532Z,0.52
2023-01-30T02:56:42.503Z,0.51
2023-01-30T02:59:13.305Z,0.49
2023-01-30T03:01:57.462Z,0.49
2023-01-30T03:04:38.033Z,0.46
2023-01-30T03:07:12.939Z,0.45
2023-01-30T03:09:45.952Z,0.45
2023-01-30T03:12:17.967Z,0.45
2023-01-30T03:14:49.975Z,0.46
2023-01-30T03:17:20.805Z,0.45
2023-01-30T03:19:52.051Z,0.44
2023-01-30T03:22:23.215Z,0.41
2023-01-30T03:24:54.544Z,0.42
2023-01-30T03:27:25.370Z,0.41
2023-01-30T03:29:56.070Z,0.41
2023-01-30T03:32:27.020Z,0.42
2023-01-30T03:34:58.898Z,0.43
2023-01-30T03:37:30.143Z,0.42
2023-01-30T03:40:01.602Z,0.42
2023-01-30T03:42:33.154Z,0.44
2023-01-30T03:45:04.705Z,0.43
2023-01-30T03:47:36.127Z,0.43
2023-01-30T03:50:08.115Z,0.43
2023-01-30T03:52:39.551Z,0.43
2023-01-30T03:55:11.529Z,0.42
2023-01-30T03:57:42.968Z,0.37
2023-01-30T04:00:15.514Z,0.35
2023-01-30T04:02:46.774Z,0.34
2023-01-30T04:05:18.756Z,0.34
2023-01-30T04:07:50.683Z,0.34
2023-01-30T04:10:22.227Z,0.37
2023-01-30T04:12:53.659Z,0.40
2023-01-30T04:15:24.767Z,0.40
2023-01-30T04:17:56.190Z,0.40
2023-01-30T04:20:27.732Z,0.40
2023-01-30T04:22:59.455Z,0.37
2023-01-30T04:25:30.463Z,0.34
2023-01-30T04:28:01.814Z,0.31
2023-01-30T04:30:33.197Z,0.27
2023-01-30T04:33:04.990Z,0.30
2023-01-30T04:35:36.363Z,0.33
2023-01-30T04:38:07.337Z,0.36
2023-01-30T04:40:38.604Z,0.36
2023-01-30T04:43:10.128Z,0.37
2023-01-30T04:45:43.734Z,0.39
2023-01-30T04:48:15.183Z,0.37
2023-01-30T04:50:48.479Z,0.37
2023-01-30T04:53:20.189Z,0.39
2023-01-30T04:55:51.622Z,0.39
2023-01-30T04:58:23.244Z,0.39
2023-01-30T05:00:54.636Z,0.44
2023-01-30T05:03:26.165Z,0.48
2023-01-30T05:05:57.393Z,0.53
2023-01-30T05:08:28.846Z,0.58
2023-01-30T05:11:00.394Z,0.65
2023-01-30T05:13:31.958Z,0.73
2023-01-30T05:16:03.314Z,0.76
2023-01-30T05:18:35.416Z,0.77
2023-01-30T05:21:08.350Z,0.78
2023-01-30T05:23:39.982Z,0.81
2023-01-30T05:26:11.741Z,0.84
2023-01-30T05:28:43.382Z,0.84
2023-01-30T05:31:15.134Z,0.87
2023-01-30T05:33:47.923Z,0.87
2023-01-30T05:36:19.881Z,0.89
2023-01-30T05:38:51.471Z,0.96
2023-01-30T05:41:22.799Z,1.02
2023-01-30T05:43:54.053Z,1.08
2023-01-30T05:46:25.556Z,1.10
2023-01-30T05:48:57.233Z,1.11
2023-01-30T05:51:28.780Z,1.13
2023-01-30T05:54:00.171Z,1.16
2023-01-30T05:56:33.392Z,1.18
2023-01-30T05:59:05.033Z,1.25
2023-01-30T06:01:36.521Z,1.36
2023-01-30T06:04:08.156Z,1.43
2023-01-30T06:06:39.518Z,1.49
2023-01-30T06:09:12.202Z,1.52
2023-01-30T06:11:43.863Z,1.53
2023-01-30T06:14:15.423Z,1.52
2023-01-30T06:16:47.190Z,1.51
2023-01-30T06:19:18.507Z,1.53
2023-01-30T06:21:49.878Z,1.52
2023-01-30T06:24:21.455Z,1.45
2023-01-30T06:26:53.005Z,1.37
2023-01-30T06:29:24.507Z,1.33
2023-01-30T06:31:55.797Z,1.30
2023-01-30T06:34:27.331Z,1.28
2023-01-30T06:36:58.942Z,1.25
2023-01-30T06:39:30.418Z,1.24
2023-01-30T06:42:01.778Z,1.24
2023-01-30T06:44:33.075Z,1.26
2023-01-30T06:47:04.255Z,1.28
2023-01-30T06:49:35.562Z,1.34
2023-01-30T06:52:07.210Z,1.38
2023-01-30T06:54:38.797Z,1.41
2023-01-30T06:57:10.197Z,1.44
2023-01-30T06:59:41.621Z,1.45
2023-01-30T07:02:14.574Z,1.48
2023-01-30T07:04:46.152Z,1.51
2023-01-30T07:07:17.648Z,1.56
2023-01-30T07:10:02.138Z,1.60
2023-01-30T07:12:38.118Z,1.64
2023-01-30T07:15:10.531Z,1.67
2023-01-30T07:17:43.131Z,1.61
2023-01-30T07:20:15.064Z,1.59
2023-01-30T07:22:46.271Z,1.59
2023-01-30T07:25:18.143Z,1.58
2023-01-30T07:27:53.426Z,1.56
2023-01-30T07:30:25.264Z,1.54
2023-01-30T07:32:57.934Z,1.54
2023-01-30T07:35:29.993Z,1.54
2023-01-30T07:38:01.286Z,1.56
2023-01-30T07:40:32.901Z,1.58
2023-01-30T07:43:05.135Z,1.58
2023-01-30T07:45:38.428Z,1.58
2023-01-30T07:48:09.916Z,1.55
2023-01-30T07:50:41.292Z,1.54
2023-01-30T07:53:13.410Z,1.59
2023-01-30T07:55:44.960Z,1.65
2023-01-30T07:58:17.654Z,1.69
2023-01-30T08:00:48.992Z,1.71
2023-01-30T08:03:20.199Z,1.71
2023-01-30T08:05:53.112Z,1.67
2023-01-30T08:08:24.946Z,1.66
2023-01-30T08:10:56.245Z,1.67
2023-01-30T08:13:27.636Z,1.73
2023-01-30T08:16:01.933Z,1.81
2023-01-30T08:18:33.536Z,1.88
2023-01-30T08:21:06.084Z,1.89
2023-01-30T08:23:37.595Z,1.87
2023-01-30T08:26:09.013Z,1.90
2023-01-30T08:28:40.655Z,1.97
2023-01-30T08:31:12.699Z,2.00
2023-01-30T08:33:44.367Z,1.99
2023-01-30T08:36:15.964Z,2.04
2023-01-30T08:38:47.103Z,2.09
2023-01-30T08:41:18.498Z,2.12
2023-01-30T08:43:49.807Z,2.14
2023-01-30T08:46:22.223Z,2.20
2023-01-30T08:48:53.690Z,2.26
2023-01-30T08:51:25.279Z,2.31
2023-01-30T08:53:56.364Z,2.36
2023-01-30T08:56:27.901Z,2.46
2023-01-30T08:58:59.654Z,2.56
2023-01-30T09:01:31.193Z,2.64
2023-01-30T09:04:02.467Z,2.68
2023-01-30T09:06:34.123Z,2.77
2023-01-30T09:09:05.639Z,2.80
2023-01-30T09:11:37.340Z,2.79
2023-01-30T09:14:08.540Z,2.80
2023-01-30T09:16:39.834Z,2.84
2023-01-30T09:19:11.103Z,2.86
2023-01-30T09:21:42.640Z,2.93
2023-01-30T09:24:14.129Z,3.01
2023-01-30T09:26:46.204Z,3.11
2023-01-30T09:29:17.474Z,3.20
2023-01-30T09:31:48.739Z,3.27
2023-01-30T09:34:20.271Z,3.31
2023-01-30T09:36:51.937Z,3.40
2023-01-30T09:39:23.321Z,3.45
2023-01-30T09:41:58.937Z,3.42
2023-01-30T09:44:49.585Z,3.39
2023-01-30T09:47:22.746Z,3.37
2023-01-30T09:49:55.656Z,3.37
2023-01-30T09:52:29.121Z,3.41
2023-01-30T09:55:02.168Z,3.48
2023-01-30T09:57:33.622Z,3.55
2023-01-30T10:00:06.380Z,3.54
2023-01-30T10:02:43.295Z,3.59
2023-01-30T10:05:14.821Z,3.64
2023-01-30T10:07:50.467Z,3.76
2023-01-30T10:10:36.186Z,3.92
2023-01-30T10:13:10.348Z,4.15
2023-01-30T10:15:44.884Z,4.26
2023-01-30T10:18:23.659Z,4.32
2023-01-30T10:20:57.724Z,4.31
2023-01-30T10:23:34.015Z,4.16
2023-01-30T10:26:07.129Z,4.05
2023-01-30T10:28:39.997Z,3.96
2023-01-30T10:31:12.095Z,3.97
2023-01-30T10:33:45.640Z,4.14
2023-01-30T10:36:17.880Z,4.17
2023-01-30T10:38:49.827Z,4.27
2023-01-30T10:41:24.085Z,4.54
2023-01-30T10:43:59.188Z,4.70
2023-01-30T10:46:35.222Z,4.81
2023-01-30T10:49:06.706Z,4.91
2023-01-30T10:51:42.888Z,4.84
2023-01-30T10:54:15.219Z,4.79
2023-01-30T10:56:49.889Z,4.72
2023-01-30T10:59:25.247Z,4.54
2023-01-30T11:02:00.199Z,4.36
2023-01-30T11:04:33.419Z,4.22
2023-01-30T11:07:04.909Z,4.18
2023-01-30T11:09:44.086Z,4.18
2023-01-30T11:12:15.615Z,4.22
2023-01-30T11:14:53.885Z,4.28
2023-01-30T11:17:30.863Z,4.24
2023-01-30T11:20:06.793Z,4.12
2023-01-30T11:22:38.136Z,4.10
2023-01-30T11:25:14.771Z,4.11
2023-01-30T11:27:47.399Z,4.09
2023-01-30T11:30:20.453Z,3.99
2023-01-30T11:32:52.335Z,3.78
2023-01-30T11:35:28.008Z,3.61
2023-01-30T11:38:00.268Z,3.55
2023-01-30T11:40:32.372Z,3.56
2023-01-30T11:43:06.015Z,3.59
2023-01-30T11:45:38.908Z,3.68
2023-01-30T11:48:31.316Z,3.74
2023-01-30T11:51:06.759Z,3.85
2023-01-30T11:53:39.478Z,3.80
2023-01-30T11:56:16.647Z,3.63
2023-01-30T11:58:50.118Z,3.53
2023-01-30T12:01:21.561Z,3.57
2023-01-30T12:03:53.072Z,3.66
2023-01-30T12:06:25.455Z,3.72
2023-01-30T12:08:56.787Z,3.68
2023-01-30T12:11:29.838Z,3.62
2023-01-30T12:14:24.327Z,3.67
2023-01-30T12:16:58.025Z,3.65
2023-01-30T12:19:32.739Z,3.62
2023-01-30T12:22:05.908Z,3.53
2023-01-30T12:24:38.946Z,3.55
2023-01-30T12:27:13.111Z,3.68
2023-01-30T12:29:51.369Z,3.74
2023-01-30T12:32:22.962Z,3.85
2023-01-30T12:34:54.378Z,3.91
2023-01-30T12:37:33.543Z,4.03
2023-01-30T12:40:06.543Z,4.09
2023-01-30T12:42:44.323Z,4.26
2023-01-30T12:45:19.274Z,4.36
2023-01-30T12:48:07.327Z,4.56
2023-01-30T12:50:41.398Z,4.87
2023-01-30T12:53:18.703Z,5.14
2023-01-30T12:55:52.167Z,5.41
2023-01-30T12:58:24.634Z,5.66
2023-01-30T13:01:07.511Z,5.79
2023-01-30T13:03:40.293Z,5.70
2023-01-30T13:06:18.907Z,5.46
2023-01-30T13:08:54.346Z,5.30
2023-01-30T13:11:32.247Z,5.16
2023-01-30T13:14:05.189Z,5.00
2023-01-30T13:16:38.142Z,4.78
2023-01-30T13:19:11.534Z,4.70
2023-01-30T13:21:43.732Z,4.66
2023-01-30T13:24:18.655Z,4.48
2023-01-30T13:26:50.241Z,4.26
2023-01-30T13:29:22.572Z,4.08
2023-01-30T13:31:54.966Z,3.94
2023-01-30T13:34:29.596Z,3.95
2023-01-30T13:37:04.009Z,3.99
2023-01-30T13:39:37.187Z,4.04
2023-01-30T13:42:16.990Z,4.10
2023-01-30T13:44:49.417Z,4.05
2023-01-30T13:47:28.244Z,3.92
2023-01-30T13:50:01.782Z,3.87
2023-01-30T13:52:35.321Z,3.83
2023-01-30T13:55:08.106Z,3.80
2023-01-30T13:57:46.227Z,3.76
2023-01-30T14:00:24.132Z,3.59
2023-01-30T14:03:13.714Z,3.43
2023-01-30T14:06:02.515Z,3.36
2023-01-30T14:08:34.859Z,3.26
2023-01-30T14:11:06.970Z,3.18
2023-01-30T14:13:38.180Z,3.12
2023-01-30T14:16:09.664Z,3.08
2023-01-30T14:18:45.871Z,2.98
2023-01-30T14:21:20.332Z,2.94
2023-01-30T14:23:59.252Z,2.97
2023-01-30T14:26:50.321Z,2.89
2023-01-30T14:35:32.728Z,2.88
2023-01-30T14:44:46.541Z,2.52
2023-01-30T14:47:33.656Z,2.37
2023-01-30T14:50:18.482Z,2.28
2023-01-30T14:52:51.496Z,2.22
2023-01-30T14:55:23.741Z,2.22
2023-01-30T14:58:04.490Z,2.13
2023-01-30T15:00:36.782Z,2.04
2023-01-30T15:03:09.843Z,2.01
2023-01-30T15:05:43.211Z,1.97
2023-01-30T15:08:15.576Z,1.98
2023-01-30T15:11:09.403Z,1.89
2023-01-30T15:14:04.053Z,1.80
2023-01-30T15:16:44.779Z,1.77
2023-01-30T15:19:28.615Z,1.75
2023-01-30T15:22:12.341Z,1.71
2023-01-30T15:25:00.696Z,1.70
2023-01-30T15:27:36.612Z,1.58
2023-01-30T15:30:17.391Z,1.45
2023-01-30T15:33:22.985Z,1.44
2023-01-30T15:35:57.726Z,1.38
2023-01-30T15:38:31.406Z,1.39
2023-01-30T15:41:06.577Z,1.39
2023-01-30T15:43:54.194Z,1.31
2023-01-30T15:46:28.136Z,1.26
2023-01-30T15:49:05.987Z,1.16
2023-01-30T15:58:42.257Z,0.97
2023-01-30T16:01:05.452Z,0.92
2023-01-30T16:03:44.349Z,0.91
2023-01-30T16:06:27.979Z,0.92
2023-01-30T16:09:01.786Z,0.92
2023-01-30T16:11:40.442Z,0.86
2023-01-30T16:14:14.680Z,0.81
2023-01-30T16:16:46.700Z,0.84
2023-01-30T16:19:30.038Z,0.89
2023-01-30T16:22:14.713Z,0.92
2023-01-30T16:25:12.666Z,0.92
2023-01-30T16:27:56.253Z,0.94
2023-01-30T16:30:30.652Z,0.92
2023-01-30T16:33:17.775Z,0.92
2023-01-30T16:35:50.584Z,0.88
2023-01-30T16:38:44.790Z,0.85
2023-01-30T16:41:36.165Z,0.85
2023-01-30T16:44:21.684Z,0.87
2023-01-30T16:46:58.871Z,0.89
2023-01-30T16:49:35.386Z,0.88
2023-01-30T16:52:20.534Z,0.89
2023-01-30T16:54:52.037Z,0.89
2023-01-30T16:57:27.524Z,0.93
2023-01-30T17:00:00.041Z,0.94
2023-01-30T17:02:32.863Z,0.92
2023-01-30T17:05:14.944Z,0.86
2023-01-30T17:07:46.165Z,0.80
2023-01-30T17:10:36.860Z,0.74
2023-01-30T17:13:11.691Z,0.73
2023-01-30T17:15:42.427Z,0.77
2023-01-30T17:18:13.454Z,0.77
2023-01-30T17:20:47.666Z,0.80
2023-01-30T17:23:18.810Z,0.81
2023-01-30T17:25:49.858Z,0.81
2023-01-30T17:28:24.314Z,0.83
2023-01-30T17:30:55.343Z,0.89
2023-01-30T17:33:26.596Z,0.92
2023-01-30T17:35:57.308Z,0.93
2023-01-30T17:38:28.075Z,0.95
2023-01-30T17:44:11.554Z,0.94
2023-01-30T17:46:46.173Z,0.95
2023-01-30T17:49:19.755Z,0.99
2023-01-30T17:54:39.721Z,1.03
2023-01-30T17:57:11.699Z,1.04
2023-01-30T17:59:42.543Z,1.03
2023-01-30T18:02:13.582Z,1.04
2023-01-30T18:04:44.375Z,1.03
2023-01-30T18:07:16.764Z,1.01
2023-01-30T18:09:47.900Z,0.99
2023-01-30T18:12:19.888Z,0.96
2023-01-30T18:17:49.944Z,0.78
2023-01-30T18:20:21.643Z,0.71
2023-01-30T18:22:52.479Z,0.68
2023-01-30T18:25:24.450Z,0.63
2023-01-30T18:27:57.393Z,0.62
2023-01-30T18:30:29.145Z,0.61
2023-01-30T18:33:01.064Z,0.61
2023-01-30T18:35:32.134Z,0.59
2023-01-30T18:38:03.229Z,0.62
2023-01-30T18:40:34.128Z,0.63
2023-01-30T18:43:05.277Z,0.64
2023-01-30T18:45:36.229Z,0.60
2023-01-30T18:48:07.323Z,0.52
2023-01-30T18:50:38.639Z,0.44
2023-01-30T18:53:19.840Z,0.36
2023-01-30T18:56:09.838Z,0.35
2023-01-30T18:58:58.708Z,0.39
2023-01-30T19:01:30.800Z,0.44
2023-01-30T19:04:02.590Z,0.42
2023-01-30T19:06:33.528Z,0.38
2023-01-30T19:09:04.702Z,0.32
2023-01-30T19:11:53.242Z,0.33
2023-01-30T19:14:23.972Z,0.24
2023-01-30T19:16:56.064Z,0.19
2023-01-30T19:19:27.275Z,0.15
2023-01-30T19:21:58.872Z,0.14
2023-01-30T19:24:29.808Z,0.14
2023-01-30T19:27:00.904Z,0.14
2023-01-30T19:29:32.330Z,0.17
2023-01-30T19:32:03.651Z,0.16
2023-01-30T19:34:36.874Z,0.16
2023-01-30T19:37:07.964Z,0.14
2023-01-30T19:39:40.832Z,0.12
2023-01-30T19:42:16.534Z,0.08
2023-01-30T19:44:48.875Z,0.06
2023-01-30T19:47:24.320Z,0.05
2023-01-30T19:49:55.927Z,0.03
2023-01-30T19:52:27.883Z,0.02
2023-01-30T19:54:59.034Z,-0.01
2023-01-30T19:57:30.219Z,0.02
2023-01-30T20:00:05.373Z,0.06
2023-01-30T20:02:38.463Z,0.09
2023-01-30T20:05:11.644Z,0.14
2023-01-30T20:07:42.398Z,0.13
2023-01-30T20:10:13.368Z,0.15
2023-01-30T20:12:44.224Z,0.20
2023-01-30T20:15:17.302Z,0.24
2023-01-30T20:17:48.032Z,0.22
2023-01-30T20:20:19.275Z,0.26
2023-01-30T20:22:50.162Z,0.31
2023-01-30T20:25:21.116Z,0.35
2023-01-30T20:27:52.031Z,0.37
2023-01-30T20:30:22.784Z,0.41
2023-01-30T20:32:56.612Z,0.40
2023-01-30T20:35:27.465Z,0.37
2023-01-30T20:37:58.418Z,0.37
2023-01-30T20:40:29.113Z,0.36
2023-01-30T20:43:00.369Z,0.38
2023-01-30T20:45:31.124Z,0.40
2023-01-30T20:48:02.111Z,0.42
2023-01-30T20:50:32.984Z,0.41
2023-01-30T20:53:04.126Z,0.41
2023-01-30T20:55:34.857Z,0.38
2023-01-30T20:58:05.678Z,0.37
2023-01-30T21:00:37.051Z,0.36
2023-01-30T21:03:08.002Z,0.35
2023-01-30T21:05:38.758Z,0.31
2023-01-30T21:08:11.785Z,0.27
2023-01-30T21:10:46.842Z,0.28
2023-01-30T21:13:17.537Z,0.24
2023-01-30T21:15:48.416Z,0.18
2023-01-30T21:18:19.068Z,0.17
2023-01-30T21:20:51.311Z,0.19
2023-01-30T21:23:22.295Z,0.21
2023-01-30T21:25:52.993Z,0.25
2023-01-30T21:28:23.702Z,0.28
2023-01-30T21:30:54.445Z,0.32
2023-01-30T21:33:25.361Z,0.31
2023-01-30T21:35:56.047Z,0.27
2023-01-30T21:38:44.443Z,0.23
2023-01-30T21:41:33.651Z,0.23
2023-01-30T21:44:04.706Z,0.20
2023-01-30T21:46:36.618Z,0.19
2023-01-30T21:49:07.520Z,0.22
2023-01-30T21:51:38.896Z,0.24
2023-01-30T21:54:09.866Z,0.25
2023-01-30T21:56:40.700Z,0.25
2023-01-30T21:59:11.568Z,0.24
2023-01-30T22:01:42.494Z,0.23
2023-01-30T22:04:15.011Z,0.23
2023-01-30T22:06:45.652Z,0.24
2023-01-30T22:09:16.610Z,0.28
2023-01-30T22:11:47.594Z,0.31
2023-01-30T22:14:18.276Z,0.28
2023-01-30T22:16:49.286Z,0.27
2023-01-30T22:19:19.956Z,0.29
2023-01-30T22:21:50.686Z,0.23
2023-01-30T22:24:21.559Z,0.22
2023-01-30T22:26:53.156Z,0.24
2023-01-30T22:29:24.090Z,0.25
2023-01-30T22:31:55.085Z,0.26
2023-01-30T22:34:25.876Z,0.33
2023-01-30T22:36:56.759Z,0.35
2023-01-30T22:39:27.693Z,0.35
2023-01-30T22:41:59.354Z,0.34
2023-01-30T22:44:31.038Z,0.32
2023-01-30T22:47:02.071Z,0.33
2023-01-30T22:49:34.341Z,0.35
2023-01-30T22:52:05.821Z,0.35
2023-01-30T22:54:37.305Z,0.41
2023-01-30T22:57:08.529Z,0.44
2023-01-30T22:59:39.728Z,0.42
2023-01-30T23:02:10.931Z,0.42
2023-01-30T23:04:42.194Z,0.41
2023-01-30T23:07:14.491Z,0.39
2023-01-30T23:09:45.691Z,0.33
2023-01-30T23:12:33.862Z,0.32
2023-01-30T23:15:05.095Z,0.34
2023-01-30T23:17:53.127Z,0.34
2023-01-30T23:20:27.519Z,0.38
2023-01-30T23:23:00.727Z,0.36
2023-01-30T23:25:31.686Z,0.33
2023-01-30T23:28:02.313Z,0.32
2023-01-30T23:30:33.153Z,0.35
2023-01-30T23:33:03.730Z,0.38
2023-01-30T23:35:35.385Z,0.42
2023-01-30T23:38:19.275Z,0.46
2023-01-30T23:40:50.360Z,0.50
2023-01-30T23:43:21.405Z,0.46
2023-01-30T23:45:55.990Z,0.39
2023-01-30T23:48:27.335Z,0.37
2023-01-30T23:50:58.187Z,0.38
2023-01-30T23:53:29.160Z,0.44
2023-01-30T23:56:00.341Z,0.42
2023-01-30T23:58:31.316Z,0.38
